sensor_id;sensor_type;location;lat;lon;timestamp;P1;durP1;ratioP1;P2;durP2;ratioP2
26488;SDS011;14169;43.684;10.484;2023-03-01T00:01:39;5.25;;;4.75;;
26488;SDS011;14169;43.684;10.484;2023-03-01T00:04:05;5.13;;;4.63;;
26488;SDS011;14169;43.684;10.484;2023-03-01T00:06:30;5.60;;;5.03;;
26488;SDS011;14169;43.684;10.484;2023-03-01T00:08:56;5.63;;;5.13;;
26488;SDS011;14169;43.684;10.484;2023-03-01T00:11:24;6.65;;;5.95;;
26488;SDS011;14169;43.684;10.484;2023-03-01T00:13:53;6.57;;;5.88;;
26488;SDS011;14169;43.684;10.484;2023-03-01T00:16:24;6.55;;;4.80;;
26488;SDS011;14169;43.684;10.484;2023-03-01T00:18:56;6.35;;;5.75;;
26488;SDS011;14169;43.684;10.484;2023-03-01T00:21:23;5.78;;;5.22;;
26488;SDS011;14169;43.684;10.484;2023-03-01T00:23:50;6.00;;;5.47;;
26488;SDS011;14169;43.684;10.484;2023-03-01T00:26:16;6.82;;;5.75;;
26488;SDS011;14169;43.684;10.484;2023-03-01T00:28:43;6.00;;;5.50;;
26488;SDS011;14169;43.684;10.484;2023-03-01T00:31:10;6.40;;;5.80;;
26488;SDS011;14169;43.684;10.484;2023-03-01T00:33:38;6.85;;;6.15;;
26488;SDS011;14169;43.684;10.484;2023-03-01T00:36:04;6.75;;;6.10;;
26488;SDS011;14169;43.684;10.484;2023-03-01T00:38:34;6.88;;;6.10;;
26488;SDS011;14169;43.684;10.484;2023-03-01T00:41:10;6.63;;;5.82;;
26488;SDS011;14169;43.684;10.484;2023-03-01T00:43:38;6.80;;;6.20;;
26488;SDS011;14169;43.684;10.484;2023-03-01T00:46:04;7.18;;;6.47;;
26488;SDS011;14169;43.684;10.484;2023-03-01T00:48:31;7.03;;;6.32;;
26488;SDS011;14169;43.684;10.484;2023-03-01T00:51:03;6.28;;;5.68;;
26488;SDS011;14169;43.684;10.484;2023-03-01T00:53:38;8.77;;;6.22;;
26488;SDS011;14169;43.684;10.484;2023-03-01T00:56:05;7.45;;;5.93;;
26488;SDS011;14169;43.684;10.484;2023-03-01T00:58:32;12.25;;;5.47;;
26488;SDS011;14169;43.684;10.484;2023-03-01T01:00:58;5.97;;;5.47;;
26488;SDS011;14169;43.684;10.484;2023-03-01T01:03:24;5.18;;;4.68;;
26488;SDS011;14169;43.684;10.484;2023-03-01T01:05:51;6.00;;;5.40;;
26488;SDS011;14169;43.684;10.484;2023-03-01T01:08:17;6.43;;;5.78;;
26488;SDS011;14169;43.684;10.484;2023-03-01T01:10:43;5.85;;;4.45;;
26488;SDS011;14169;43.684;10.484;2023-03-01T01:13:10;4.68;;;4.18;;
26488;SDS011;14169;43.684;10.484;2023-03-01T01:15:36;5.53;;;4.82;;
26488;SDS011;14169;43.684;10.484;2023-03-01T01:18:02;6.30;;;5.72;;
26488;SDS011;14169;43.684;10.484;2023-03-01T01:20:28;5.72;;;5.15;;
26488;SDS011;14169;43.684;10.484;2023-03-01T01:22:53;7.38;;;6.25;;
26488;SDS011;14169;43.684;10.484;2023-03-01T01:25:19;5.88;;;5.38;;
26488;SDS011;14169;43.684;10.484;2023-03-01T01:27:44;6.82;;;6.13;;
26488;SDS011;14169;43.684;10.484;2023-03-01T01:30:10;7.68;;;6.88;;
26488;SDS011;14169;43.684;10.484;2023-03-01T01:32:36;7.53;;;6.82;;
26488;SDS011;14169;43.684;10.484;2023-03-01T01:35:02;8.48;;;7.68;;
26488;SDS011;14169;43.684;10.484;2023-03-01T01:37:27;7.13;;;6.53;;
26488;SDS011;14169;43.684;10.484;2023-03-01T01:39:59;7.90;;;7.20;;
26488;SDS011;14169;43.684;10.484;2023-03-01T01:42:26;7.75;;;7.05;;
26488;SDS011;14169;43.684;10.484;2023-03-01T01:47:55;6.68;;;5.95;;
26488;SDS011;14169;43.684;10.484;2023-03-01T01:50:25;4.30;;;3.72;;
26488;SDS011;14169;43.684;10.484;2023-03-01T01:52:51;4.57;;;4.18;;
26488;SDS011;14169;43.684;10.484;2023-03-01T01:55:19;4.07;;;3.67;;
26488;SDS011;14169;43.684;10.484;2023-03-01T01:57:54;4.97;;;4.18;;
26488;SDS011;14169;43.684;10.484;2023-03-01T02:00:25;6.75;;;3.25;;
26488;SDS011;14169;43.684;10.484;2023-03-01T02:02:55;4.07;;;3.67;;
26488;SDS011;14169;43.684;10.484;2023-03-01T02:05:26;4.10;;;3.30;;
26488;SDS011;14169;43.684;10.484;2023-03-01T02:07:57;4.43;;;3.80;;
26488;SDS011;14169;43.684;10.484;2023-03-01T02:10:23;4.63;;;4.22;;
26488;SDS011;14169;43.684;10.484;2023-03-01T02:12:49;5.25;;;4.75;;
26488;SDS011;14169;43.684;10.484;2023-03-01T02:15:16;5.30;;;4.75;;
26488;SDS011;14169;43.684;10.484;2023-03-01T02:17:41;5.28;;;4.78;;
26488;SDS011;14169;43.684;10.484;2023-03-01T02:22:48;6.78;;;3.80;;
26488;SDS011;14169;43.684;10.484;2023-03-01T02:28:10;5.05;;;3.42;;
26488;SDS011;14169;43.684;10.484;2023-03-01T02:30:43;3.25;;;2.60;;
26488;SDS011;14169;43.684;10.484;2023-03-01T02:33:31;3.67;;;2.47;;
26488;SDS011;14169;43.684;10.484;2023-03-01T02:36:03;3.38;;;2.58;;
26488;SDS011;14169;43.684;10.484;2023-03-01T02:38:32;3.92;;;2.60;;
26488;SDS011;14169;43.684;10.484;2023-03-01T02:40:58;2.88;;;2.53;;
26488;SDS011;14169;43.684;10.484;2023-03-01T02:43:26;3.33;;;2.67;;
26488;SDS011;14169;43.684;10.484;2023-03-01T02:45:57;2.55;;;2.05;;
26488;SDS011;14169;43.684;10.484;2023-03-01T02:48:24;3.38;;;2.80;;
26488;SDS011;14169;43.684;10.484;2023-03-01T02:53:41;3.90;;;2.20;;
26488;SDS011;14169;43.684;10.484;2023-03-01T02:56:20;2.28;;;1.70;;
26488;SDS011;14169;43.684;10.484;2023-03-01T02:58:46;2.20;;;1.88;;
26488;SDS011;14169;43.684;10.484;2023-03-01T03:01:16;3.00;;;2.20;;
26488;SDS011;14169;43.684;10.484;2023-03-01T03:03:43;2.90;;;2.15;;
26488;SDS011;14169;43.684;10.484;2023-03-01T03:06:09;2.50;;;2.28;;
26488;SDS011;14169;43.684;10.484;2023-03-01T03:08:34;3.00;;;2.35;;
26488;SDS011;14169;43.684;10.484;2023-03-01T03:11:00;2.35;;;2.00;;
26488;SDS011;14169;43.684;10.484;2023-03-01T03:13:26;6.07;;;2.90;;
26488;SDS011;14169;43.684;10.484;2023-03-01T03:15:53;2.92;;;2.60;;
26488;SDS011;14169;43.684;10.484;2023-03-01T03:18:19;3.00;;;2.58;;
26488;SDS011;14169;43.684;10.484;2023-03-01T03:20:45;4.30;;;2.15;;
26488;SDS011;14169;43.684;10.484;2023-03-01T03:23:10;5.45;;;3.00;;
26488;SDS011;14169;43.684;10.484;2023-03-01T03:25:36;3.15;;;2.67;;
26488;SDS011;14169;43.684;10.484;2023-03-01T03:28:03;4.95;;;3.15;;
26488;SDS011;14169;43.684;10.484;2023-03-01T03:30:34;3.17;;;2.83;;
26488;SDS011;14169;43.684;10.484;2023-03-01T03:33:04;2.40;;;2.20;;
26488;SDS011;14169;43.684;10.484;2023-03-01T03:35:32;2.63;;;2.35;;
26488;SDS011;14169;43.684;10.484;2023-03-01T03:38:00;2.72;;;2.28;;
26488;SDS011;14169;43.684;10.484;2023-03-01T03:40:36;2.60;;;2.40;;
26488;SDS011;14169;43.684;10.484;2023-03-01T03:43:07;2.65;;;2.20;;
26488;SDS011;14169;43.684;10.484;2023-03-01T03:45:37;2.40;;;2.20;;
26488;SDS011;14169;43.684;10.484;2023-03-01T03:48:04;2.72;;;2.22;;
26488;SDS011;14169;43.684;10.484;2023-03-01T03:50:31;3.25;;;2.95;;
26488;SDS011;14169;43.684;10.484;2023-03-01T03:52:57;4.05;;;2.63;;
26488;SDS011;14169;43.684;10.484;2023-03-01T03:55:24;2.90;;;2.60;;
26488;SDS011;14169;43.684;10.484;2023-03-01T03:57:54;3.72;;;2.70;;
26488;SDS011;14169;43.684;10.484;2023-03-01T04:00:22;3.40;;;3.10;;
26488;SDS011;14169;43.684;10.484;2023-03-01T04:02:49;3.20;;;2.90;;
26488;SDS011;14169;43.684;10.484;2023-03-01T04:05:16;3.15;;;2.85;;
26488;SDS011;14169;43.684;10.484;2023-03-01T04:07:43;3.30;;;3.00;;
26488;SDS011;14169;43.684;10.484;2023-03-01T04:10:10;3.78;;;3.38;;
26488;SDS011;14169;43.684;10.484;2023-03-01T04:12:37;3.28;;;2.97;;
26488;SDS011;14169;43.684;10.484;2023-03-01T04:15:03;3.13;;;2.83;;
26488;SDS011;14169;43.684;10.484;2023-03-01T04:17:38;2.85;;;2.33;;
26488;SDS011;14169;43.684;10.484;2023-03-01T04:20:11;2.90;;;2.28;;
26488;SDS011;14169;43.684;10.484;2023-03-01T04:22:50;2.38;;;2.13;;
26488;SDS011;14169;43.684;10.484;2023-03-01T04:25:17;2.55;;;2.05;;
26488;SDS011;14169;43.684;10.484;2023-03-01T04:27:43;2.45;;;2.25;;
26488;SDS011;14169;43.684;10.484;2023-03-01T04:30:09;2.10;;;1.90;;
26488;SDS011;14169;43.684;10.484;2023-03-01T04:32:36;2.28;;;2.08;;
26488;SDS011;14169;43.684;10.484;2023-03-01T04:35:01;2.30;;;2.05;;
26488;SDS011;14169;43.684;10.484;2023-03-01T04:37:27;1.83;;;1.58;;
26488;SDS011;14169;43.684;10.484;2023-03-01T04:39:52;2.08;;;1.55;;
26488;SDS011;14169;43.684;10.484;2023-03-01T04:42:18;1.70;;;1.42;;
26488;SDS011;14169;43.684;10.484;2023-03-01T04:44:44;1.80;;;1.40;;
26488;SDS011;14169;43.684;10.484;2023-03-01T04:47:10;1.98;;;1.40;;
26488;SDS011;14169;43.684;10.484;2023-03-01T04:49:36;1.73;;;1.52;;
26488;SDS011;14169;43.684;10.484;2023-03-01T04:52:02;1.92;;;1.52;;
26488;SDS011;14169;43.684;10.484;2023-03-01T04:54:29;1.60;;;1.50;;
26488;SDS011;14169;43.684;10.484;2023-03-01T04:56:58;1.65;;;1.45;;
26488;SDS011;14169;43.684;10.484;2023-03-01T04:59:24;1.58;;;1.45;;
26488;SDS011;14169;43.684;10.484;2023-03-01T05:01:50;1.65;;;1.27;;
26488;SDS011;14169;43.684;10.484;2023-03-01T05:04:16;1.63;;;1.52;;
26488;SDS011;14169;43.684;10.484;2023-03-01T05:06:41;1.30;;;1.02;;
26488;SDS011;14169;43.684;10.484;2023-03-01T05:09:07;1.40;;;1.30;;
26488;SDS011;14169;43.684;10.484;2023-03-01T05:11:32;1.25;;;1.10;;
26488;SDS011;14169;43.684;10.484;2023-03-01T05:16:31;1.10;;;1.00;;
26488;SDS011;14169;43.684;10.484;2023-03-01T05:18:57;1.20;;;1.10;;
26488;SDS011;14169;43.684;10.484;2023-03-01T05:21:23;1.50;;;1.10;;
26488;SDS011;14169;43.684;10.484;2023-03-01T05:23:49;1.40;;;1.20;;
26488;SDS011;14169;43.684;10.484;2023-03-01T05:26:15;1.40;;;1.30;;
26488;SDS011;14169;43.684;10.484;2023-03-01T05:28:42;1.40;;;1.20;;
26488;SDS011;14169;43.684;10.484;2023-03-01T05:31:08;1.20;;;1.10;;
26488;SDS011;14169;43.684;10.484;2023-03-01T05:33:37;1.23;;;1.13;;
26488;SDS011;14169;43.684;10.484;2023-03-01T05:36:04;1.40;;;1.20;;
26488;SDS011;14169;43.684;10.484;2023-03-01T05:38:31;1.70;;;1.20;;
26488;SDS011;14169;43.684;10.484;2023-03-01T05:40:56;1.73;;;1.30;;
26488;SDS011;14169;43.684;10.484;2023-03-01T05:43:22;1.30;;;1.20;;
26488;SDS011;14169;43.684;10.484;2023-03-01T05:45:47;1.65;;;1.33;;
26488;SDS011;14169;43.684;10.484;2023-03-01T05:48:12;2.75;;;1.30;;
26488;SDS011;14169;43.684;10.484;2023-03-01T05:50:42;3.30;;;1.95;;
26488;SDS011;14169;43.684;10.484;2023-03-01T05:53:10;2.05;;;1.73;;
26488;SDS011;14169;43.684;10.484;2023-03-01T05:55:38;1.75;;;1.20;;
26488;SDS011;14169;43.684;10.484;2023-03-01T05:58:05;0.90;;;0.90;;
26488;SDS011;14169;43.684;10.484;2023-03-01T06:00:34;1.20;;;1.10;;
26488;SDS011;14169;43.684;10.484;2023-03-01T06:02:59;1.38;;;1.27;;
26488;SDS011;14169;43.684;10.484;2023-03-01T06:05:26;1.45;;;1.20;;
26488;SDS011;14169;43.684;10.484;2023-03-01T06:07:53;1.80;;;1.38;;
26488;SDS011;14169;43.684;10.484;2023-03-01T06:10:19;1.77;;;1.30;;
26488;SDS011;14169;43.684;10.484;2023-03-01T06:12:46;1.92;;;1.33;;
26488;SDS011;14169;43.684;10.484;2023-03-01T06:15:12;1.40;;;1.30;;
26488;SDS011;14169;43.684;10.484;2023-03-01T06:17:39;1.80;;;1.45;;
26488;SDS011;14169;43.684;10.484;2023-03-01T06:20:07;2.50;;;1.40;;
26488;SDS011;14169;43.684;10.484;2023-03-01T06:22:35;1.90;;;1.40;;
26488;SDS011;14169;43.684;10.484;2023-03-01T06:25:00;2.90;;;2.00;;
26488;SDS011;14169;43.684;10.484;2023-03-01T06:27:26;1.75;;;1.52;;
26488;SDS011;14169;43.684;10.484;2023-03-01T06:29:52;2.58;;;1.88;;
26488;SDS011;14169;43.684;10.484;2023-03-01T06:32:18;2.55;;;2.13;;
26488;SDS011;14169;43.684;10.484;2023-03-01T06:34:43;3.85;;;3.38;;
26488;SDS011;14169;43.684;10.484;2023-03-01T06:37:09;4.75;;;3.78;;
26488;SDS011;14169;43.684;10.484;2023-03-01T06:39:34;3.65;;;2.95;;
26488;SDS011;14169;43.684;10.484;2023-03-01T06:42:00;2.85;;;2.53;;
26488;SDS011;14169;43.684;10.484;2023-03-01T06:44:25;3.47;;;2.95;;
26488;SDS011;14169;43.684;10.484;2023-03-01T06:46:51;3.05;;;2.25;;
26488;SDS011;14169;43.684;10.484;2023-03-01T06:49:17;3.25;;;2.85;;
26488;SDS011;14169;43.684;10.484;2023-03-01T06:51:43;3.28;;;2.97;;
26488;SDS011;14169;43.684;10.484;2023-03-01T06:54:08;3.28;;;2.90;;
26488;SDS011;14169;43.684;10.484;2023-03-01T06:56:34;3.65;;;3.17;;
26488;SDS011;14169;43.684;10.484;2023-03-01T06:59:00;3.10;;;2.65;;
26488;SDS011;14169;43.684;10.484;2023-03-01T07:01:26;2.63;;;2.17;;
26488;SDS011;14169;43.684;10.484;2023-03-01T07:03:51;2.85;;;2.63;;
26488;SDS011;14169;43.684;10.484;2023-03-01T07:06:21;3.65;;;2.85;;
26488;SDS011;14169;43.684;10.484;2023-03-01T07:08:46;2.75;;;2.30;;
26488;SDS011;14169;43.684;10.484;2023-03-01T07:11:12;2.90;;;2.35;;
26488;SDS011;14169;43.684;10.484;2023-03-01T07:13:38;3.08;;;2.80;;
26488;SDS011;14169;43.684;10.484;2023-03-01T07:16:03;2.97;;;2.65;;
26488;SDS011;14169;43.684;10.484;2023-03-01T07:18:29;3.38;;;2.90;;
26488;SDS011;14169;43.684;10.484;2023-03-01T07:20:54;2.92;;;2.65;;
26488;SDS011;14169;43.684;10.484;2023-03-01T07:23:20;3.28;;;2.97;;
26488;SDS011;14169;43.684;10.484;2023-03-01T07:25:50;3.15;;;2.85;;
26488;SDS011;14169;43.684;10.484;2023-03-01T07:28:17;3.25;;;2.95;;
26488;SDS011;14169;43.684;10.484;2023-03-01T07:30:42;4.72;;;3.65;;
26488;SDS011;14169;43.684;10.484;2023-03-01T07:33:08;3.50;;;3.20;;
26488;SDS011;14169;43.684;10.484;2023-03-01T07:35:33;3.40;;;3.08;;
26488;SDS011;14169;43.684;10.484;2023-03-01T07:37:58;3.78;;;2.90;;
26488;SDS011;14169;43.684;10.484;2023-03-01T07:40:24;3.42;;;3.08;;
26488;SDS011;14169;43.684;10.484;2023-03-01T07:42:49;4.75;;;3.85;;
26488;SDS011;14169;43.684;10.484;2023-03-01T07:45:20;4.60;;;4.00;;
26488;SDS011;14169;43.684;10.484;2023-03-01T07:47:46;4.00;;;3.65;;
26488;SDS011;14169;43.684;10.484;2023-03-01T07:50:11;3.95;;;3.55;;
26488;SDS011;14169;43.684;10.484;2023-03-01T07:52:38;4.80;;;3.75;;
26488;SDS011;14169;43.684;10.484;2023-03-01T07:55:03;3.10;;;2.80;;
26488;SDS011;14169;43.684;10.484;2023-03-01T07:57:29;4.07;;;3.50;;
26488;SDS011;14169;43.684;10.484;2023-03-01T07:59:55;4.35;;;3.65;;
26488;SDS011;14169;43.684;10.484;2023-03-01T08:02:20;6.88;;;3.85;;
26488;SDS011;14169;43.684;10.484;2023-03-01T08:04:46;4.10;;;3.70;;
26488;SDS011;14169;43.684;10.484;2023-03-01T08:07:11;4.75;;;4.35;;
26488;SDS011;14169;43.684;10.484;2023-03-01T08:09:37;4.60;;;4.20;;
26488;SDS011;14169;43.684;10.484;2023-03-01T08:12:03;5.72;;;4.40;;
26488;SDS011;14169;43.684;10.484;2023-03-01T08:14:30;8.20;;;4.63;;
26488;SDS011;14169;43.684;10.484;2023-03-01T08:16:56;4.68;;;4.20;;
26488;SDS011;14169;43.684;10.484;2023-03-01T08:19:22;5.35;;;4.85;;
26488;SDS011;14169;43.684;10.484;2023-03-01T08:21:48;5.47;;;4.97;;
26488;SDS011;14169;43.684;10.484;2023-03-01T08:24:13;5.50;;;4.93;;
26488;SDS011;14169;43.684;10.484;2023-03-01T08:26:39;5.35;;;4.85;;
26488;SDS011;14169;43.684;10.484;2023-03-01T08:29:05;4.90;;;4.40;;
26488;SDS011;14169;43.684;10.484;2023-03-01T08:31:32;4.72;;;4.32;;
26488;SDS011;14169;43.684;10.484;2023-03-01T08:34:07;5.32;;;4.82;;
26488;SDS011;14169;43.684;10.484;2023-03-01T08:36:36;5.18;;;4.63;;
26488;SDS011;14169;43.684;10.484;2023-03-01T08:39:03;5.15;;;4.75;;
26488;SDS011;14169;43.684;10.484;2023-03-01T08:41:30;5.22;;;4.82;;
26488;SDS011;14169;43.684;10.484;2023-03-01T08:43:55;5.03;;;4.28;;
26488;SDS011;14169;43.684;10.484;2023-03-01T08:46:27;5.07;;;4.47;;
26488;SDS011;14169;43.684;10.484;2023-03-01T08:48:54;7.05;;;3.97;;
26488;SDS011;14169;43.684;10.484;2023-03-01T08:51:20;5.07;;;4.57;;
26488;SDS011;14169;43.684;10.484;2023-03-01T08:53:46;4.00;;;3.70;;
26488;SDS011;14169;43.684;10.484;2023-03-01T08:56:12;4.20;;;3.80;;
26488;SDS011;14169;43.684;10.484;2023-03-01T08:58:39;4.13;;;3.63;;
26488;SDS011;14169;43.684;10.484;2023-03-01T09:01:08;3.50;;;3.20;;
26488;SDS011;14169;43.684;10.484;2023-03-01T09:03:38;3.33;;;3.03;;
26488;SDS011;14169;43.684;10.484;2023-03-01T09:06:04;4.10;;;3.67;;
26488;SDS011;14169;43.684;10.484;2023-03-01T09:08:34;3.60;;;3.30;;
26488;SDS011;14169;43.684;10.484;2023-03-01T09:11:04;3.50;;;3.20;;
26488;SDS011;14169;43.684;10.484;2023-03-01T09:13:30;4.18;;;3.75;;
26488;SDS011;14169;43.684;10.484;2023-03-01T09:16:00;3.65;;;3.33;;
26488;SDS011;14169;43.684;10.484;2023-03-01T09:18:27;3.13;;;2.40;;
26488;SDS011;14169;43.684;10.484;2023-03-01T09:21:00;3.50;;;3.20;;
26488;SDS011;14169;43.684;10.484;2023-03-01T09:23:26;4.00;;;2.80;;
26488;SDS011;14169;43.684;10.484;2023-03-01T09:25:52;2.97;;;2.67;;
26488;SDS011;14169;43.684;10.484;2023-03-01T09:28:17;2.55;;;2.35;;
26488;SDS011;14169;43.684;10.484;2023-03-01T09:30:48;2.60;;;2.40;;
26488;SDS011;14169;43.684;10.484;2023-03-01T09:33:13;3.03;;;2.72;;
26488;SDS011;14169;43.684;10.484;2023-03-01T09:35:40;3.13;;;2.50;;
26488;SDS011;14169;43.684;10.484;2023-03-01T09:38:11;3.13;;;2.60;;
26488;SDS011;14169;43.684;10.484;2023-03-01T09:40:41;2.53;;;2.33;;
26488;SDS011;14169;43.684;10.484;2023-03-01T09:43:31;2.60;;;2.40;;
26488;SDS011;14169;43.684;10.484;2023-03-01T09:46:06;3.38;;;2.35;;
26488;SDS011;14169;43.684;10.484;2023-03-01T09:48:41;2.08;;;1.88;;
26488;SDS011;14169;43.684;10.484;2023-03-01T09:51:30;1.50;;;1.40;;
26488;SDS011;14169;43.684;10.484;2023-03-01T09:53:57;1.75;;;1.38;;
26488;SDS011;14169;43.684;10.484;2023-03-01T09:56:43;2.05;;;1.60;;
26488;SDS011;14169;43.684;10.484;2023-03-01T09:59:25;1.43;;;1.30;;
26488;SDS011;14169;43.684;10.484;2023-03-01T10:04:41;1.95;;;1.60;;
26488;SDS011;14169;43.684;10.484;2023-03-01T10:09:36;0.60;;;0.60;;
26488;SDS011;14169;43.684;10.484;2023-03-01T10:12:08;1.23;;;0.70;;
26488;SDS011;14169;43.684;10.484;2023-03-01T10:22:50;1.48;;;0.80;;
26488;SDS011;14169;43.684;10.484;2023-03-01T10:28:17;0.80;;;0.80;;
26488;SDS011;14169;43.684;10.484;2023-03-01T10:30:50;1.98;;;1.65;;
26488;SDS011;14169;43.684;10.484;2023-03-01T10:33:22;1.50;;;1.40;;
26488;SDS011;14169;43.684;10.484;2023-03-01T10:35:50;1.55;;;1.42;;
26488;SDS011;14169;43.684;10.484;2023-03-01T10:38:16;1.52;;;1.40;;
26488;SDS011;14169;43.684;10.484;2023-03-01T10:43:17;1.60;;;1.20;;
26488;SDS011;14169;43.684;10.484;2023-03-01T10:45:42;1.88;;;1.48;;
26488;SDS011;14169;43.684;10.484;2023-03-01T10:50:38;1.95;;;1.70;;
26488;SDS011;14169;43.684;10.484;2023-03-01T10:53:08;1.90;;;1.52;;
26488;SDS011;14169;43.684;10.484;2023-03-01T10:55:46;2.42;;;1.77;;
26488;SDS011;14169;43.684;10.484;2023-03-01T11:03:15;4.80;;;3.60;;
26488;SDS011;14169;43.684;10.484;2023-03-01T11:05:55;4.80;;;4.20;;
26488;SDS011;14169;43.684;10.484;2023-03-01T11:08:46;5.75;;;4.75;;
26488;SDS011;14169;43.684;10.484;2023-03-01T11:11:23;2.13;;;1.92;;
26488;SDS011;14169;43.684;10.484;2023-03-01T11:14:00;2.13;;;1.92;;
26488;SDS011;14169;43.684;10.484;2023-03-01T11:16:33;5.15;;;4.65;;
26488;SDS011;14169;43.684;10.484;2023-03-01T11:21:35;2.28;;;2.08;;
26488;SDS011;14169;43.684;10.484;2023-03-01T11:24:05;10.00;;;9.10;;
26488;SDS011;14169;43.684;10.484;2023-03-01T11:26:36;3.33;;;3.03;;
26488;SDS011;14169;43.684;10.484;2023-03-01T11:29:07;2.45;;;2.25;;
26488;SDS011;14169;43.684;10.484;2023-03-01T11:31:58;3.35;;;3.05;;
26488;SDS011;14169;43.684;10.484;2023-03-01T11:34:34;3.13;;;2.53;;
26488;SDS011;14169;43.684;10.484;2023-03-01T11:37:08;3.30;;;2.95;;
26488;SDS011;14169;43.684;10.484;2023-03-01T11:44:50;2.55;;;2.35;;
26488;SDS011;14169;43.684;10.484;2023-03-01T11:56:34;3.08;;;2.78;;
26488;SDS011;14169;43.684;10.484;2023-03-01T12:01:38;2.10;;;1.90;;
26488;SDS011;14169;43.684;10.484;2023-03-01T12:09:50;3.40;;;1.90;;
26488;SDS011;14169;43.684;10.484;2023-03-01T12:15:49;2.45;;;2.20;;
26488;SDS011;14169;43.684;10.484;2023-03-01T12:21:28;2.95;;;1.85;;
26488;SDS011;14169;43.684;10.484;2023-03-01T12:32:52;1.60;;;1.50;;
26488;SDS011;14169;43.684;10.484;2023-03-01T12:51:25;2.58;;;2.05;;
26488;SDS011;14169;43.684;10.484;2023-03-01T12:53:55;2.95;;;2.65;;
26488;SDS011;14169;43.684;10.484;2023-03-01T12:56:27;2.30;;;2.10;;
26488;SDS011;14169;43.684;10.484;2023-03-01T12:59:03;3.00;;;2.03;;
26488;SDS011;14169;43.684;10.484;2023-03-01T13:18:34;2.88;;;2.60;;
26488;SDS011;14169;43.684;10.484;2023-03-01T13:44:25;2.10;;;1.90;;
26488;SDS011;14169;43.684;10.484;2023-03-01T13:49:28;6.10;;;5.50;;
26488;SDS011;14169;43.684;10.484;2023-03-01T13:52:01;3.67;;;3.38;;
26488;SDS011;14169;43.684;10.484;2023-03-01T13:54:29;2.05;;;1.85;;
26488;SDS011;14169;43.684;10.484;2023-03-01T13:56:57;2.38;;;2.17;;
26488;SDS011;14169;43.684;10.484;2023-03-01T13:59:25;2.40;;;1.88;;
26488;SDS011;14169;43.684;10.484;2023-03-01T14:01:52;2.50;;;2.00;;
26488;SDS011;14169;43.684;10.484;2023-03-01T14:04:29;3.15;;;2.78;;
26488;SDS011;14169;43.684;10.484;2023-03-01T14:07:10;2.47;;;2.28;;
26488;SDS011;14169;43.684;10.484;2023-03-01T14:09:44;3.85;;;3.47;;
26488;SDS011;14169;43.684;10.484;2023-03-01T14:15:06;3.67;;;3.28;;
26488;SDS011;14169;43.684;10.484;2023-03-01T14:20:10;2.58;;;1.90;;
26488;SDS011;14169;43.684;10.484;2023-03-01T14:22:42;3.67;;;3.30;;
26488;SDS011;14169;43.684;10.484;2023-03-01T14:25:19;2.40;;;2.20;;
26488;SDS011;14169;43.684;10.484;2023-03-01T14:27:54;3.35;;;2.72;;
26488;SDS011;14169;43.684;10.484;2023-03-01T14:30:56;3.30;;;2.97;;
26488;SDS011;14169;43.684;10.484;2023-03-01T14:35:51;3.13;;;2.25;;
26488;SDS011;14169;43.684;10.484;2023-03-01T14:41:00;3.75;;;3.42;;
26488;SDS011;14169;43.684;10.484;2023-03-01T14:43:29;2.88;;;2.50;;
26488;SDS011;14169;43.684;10.484;2023-03-01T14:45:55;1.90;;;1.60;;
26488;SDS011;14169;43.684;10.484;2023-03-01T14:48:21;1.50;;;1.30;;
26488;SDS011;14169;43.684;10.484;2023-03-01T14:50:48;1.52;;;1.35;;
26488;SDS011;14169;43.684;10.484;2023-03-01T14:53:25;1.95;;;1.60;;
26488;SDS011;14169;43.684;10.484;2023-03-01T14:55:59;2.08;;;1.88;;
26488;SDS011;14169;43.684;10.484;2023-03-01T14:58:28;1.98;;;1.70;;
26488;SDS011;14169;43.684;10.484;2023-03-01T15:01:00;2.05;;;1.85;;
26488;SDS011;14169;43.684;10.484;2023-03-01T15:03:32;1.95;;;1.75;;
26488;SDS011;14169;43.684;10.484;2023-03-01T15:06:02;2.42;;;2.22;;
26488;SDS011;14169;43.684;10.484;2023-03-01T15:08:29;2.95;;;2.40;;
26488;SDS011;14169;43.684;10.484;2023-03-01T15:11:32;2.20;;;2.00;;
26488;SDS011;14169;43.684;10.484;2023-03-01T15:13:55;2.40;;;2.20;;
26488;SDS011;14169;43.684;10.484;2023-03-01T15:16:30;2.45;;;2.25;;
26488;SDS011;14169;43.684;10.484;2023-03-01T15:19:05;3.00;;;2.13;;
26488;SDS011;14169;43.684;10.484;2023-03-01T15:21:35;2.58;;;2.38;;
26488;SDS011;14169;43.684;10.484;2023-03-01T15:26:29;3.17;;;2.65;;
26488;SDS011;14169;43.684;10.484;2023-03-01T15:28:57;3.10;;;2.80;;
26488;SDS011;14169;43.684;10.484;2023-03-01T15:31:25;4.05;;;3.65;;
26488;SDS011;14169;43.684;10.484;2023-03-01T15:36:56;3.58;;;3.28;;
26488;SDS011;14169;43.684;10.484;2023-03-01T15:39:31;2.60;;;2.40;;
26488;SDS011;14169;43.684;10.484;2023-03-01T15:42:17;2.83;;;2.63;;
26488;SDS011;14169;43.684;10.484;2023-03-01T15:47:55;2.45;;;2.25;;
26488;SDS011;14169;43.684;10.484;2023-03-01T15:53:00;2.35;;;2.15;;
26488;SDS011;14169;43.684;10.484;2023-03-01T15:55:27;2.50;;;2.30;;
26488;SDS011;14169;43.684;10.484;2023-03-01T16:00:50;3.03;;;2.80;;
26488;SDS011;14169;43.684;10.484;2023-03-01T16:03:20;2.45;;;2.25;;
26488;SDS011;14169;43.684;10.484;2023-03-01T16:05:47;2.78;;;2.58;;
26488;SDS011;14169;43.684;10.484;2023-03-01T16:08:15;2.50;;;2.30;;
26488;SDS011;14169;43.684;10.484;2023-03-01T16:10:42;2.42;;;2.17;;
26488;SDS011;14169;43.684;10.484;2023-03-01T16:13:11;2.25;;;2.03;;
26488;SDS011;14169;43.684;10.484;2023-03-01T16:15:36;2.42;;;1.73;;
26488;SDS011;14169;43.684;10.484;2023-03-01T16:18:03;2.08;;;1.88;;
26488;SDS011;14169;43.684;10.484;2023-03-01T16:20:30;2.50;;;2.30;;
26488;SDS011;14169;43.684;10.484;2023-03-01T16:23:04;2.45;;;2.25;;
26488;SDS011;14169;43.684;10.484;2023-03-01T16:25:31;6.88;;;3.50;;
26488;SDS011;14169;43.684;10.484;2023-03-01T16:27:57;6.38;;;5.70;;
26488;SDS011;14169;43.684;10.484;2023-03-01T16:30:25;4.53;;;3.90;;
26488;SDS011;14169;43.684;10.484;2023-03-01T16:32:51;3.78;;;3.38;;
26488;SDS011;14169;43.684;10.484;2023-03-01T16:35:18;3.95;;;3.63;;
26488;SDS011;14169;43.684;10.484;2023-03-01T16:37:45;3.03;;;2.63;;
26488;SDS011;14169;43.684;10.484;2023-03-01T16:40:16;3.25;;;2.95;;
26488;SDS011;14169;43.684;10.484;2023-03-01T16:42:42;3.50;;;3.20;;
26488;SDS011;14169;43.684;10.484;2023-03-01T16:45:08;3.45;;;3.15;;
26488;SDS011;14169;43.684;10.484;2023-03-01T16:47:34;4.10;;;3.75;;
26488;SDS011;14169;43.684;10.484;2023-03-01T16:50:00;3.60;;;3.30;;
26488;SDS011;14169;43.684;10.484;2023-03-01T16:52:26;3.22;;;2.92;;
26488;SDS011;14169;43.684;10.484;2023-03-01T16:54:51;3.33;;;2.80;;
26488;SDS011;14169;43.684;10.484;2023-03-01T16:57:17;3.50;;;3.20;;
26488;SDS011;14169;43.684;10.484;2023-03-01T16:59:42;5.40;;;3.47;;
26488;SDS011;14169;43.684;10.484;2023-03-01T17:02:11;6.00;;;3.40;;
26488;SDS011;14169;43.684;10.484;2023-03-01T17:04:38;4.35;;;3.95;;
26488;SDS011;14169;43.684;10.484;2023-03-01T17:07:03;4.50;;;4.10;;
26488;SDS011;14169;43.684;10.484;2023-03-01T17:09:29;5.68;;;4.95;;
26488;SDS011;14169;43.684;10.484;2023-03-01T17:11:54;5.30;;;4.18;;
26488;SDS011;14169;43.684;10.484;2023-03-01T17:14:20;4.78;;;4.18;;
26488;SDS011;14169;43.684;10.484;2023-03-01T17:16:46;4.47;;;4.07;;
26488;SDS011;14169;43.684;10.484;2023-03-01T17:19:11;5.32;;;4.82;;
26488;SDS011;14169;43.684;10.484;2023-03-01T17:21:42;5.85;;;5.22;;
26488;SDS011;14169;43.684;10.484;2023-03-01T17:24:08;6.35;;;5.78;;
26488;SDS011;14169;43.684;10.484;2023-03-01T17:26:34;6.55;;;5.95;;